Time;durP1;ratioP1;P1;durP2;ratioP2;P2;SDS_P1;SDS_P2;PMS_P1;PMS_P2;Temp;Humidity;BMP_temperature;BMP_pressure;BME280_temperature;BME280_humidity;BME280_pressure;Samples;Min_cycle;Max_cycle;Signal;HPM_P1;HPM_P2
2022/05/28 00:00:25;;;;;;;4.23;1.00;;;;;;;;;;4966744;28;20236;-62
2022/05/28 00:02:52;;;;;;;2.83;1.00;;;;;;;;;;4983343;28;20236;-62
2022/05/28 00:05:18;;;;;;;4.13;1.10;;;;;;;;;;4982059;28;20239;-62
2022/05/28 00:07:45;;;;;;;6.57;1.27;;;;;;;;;;4989933;28;20222;-62
2022/05/28 00:10:12;;;;;;;2.73;1.07;;;;;;;;;;5001361;28;20250;-61
2022/05/28 00:12:39;;;;;;;3.13;1.27;;;;;;;;;;5003306;28;20227;-62
2022/05/28 00:15:24;;;;;;;4.97;0.90;;;;;;;;;;5000749;28;20326;-62
2022/05/28 00:17:50;;;;;;;5.50;1.20;;;;;;;;;;5003166;28;20235;-61
2022/05/28 00:20:17;;;;;;;2.60;0.90;;;;;;;;;;5000850;28;20722;-62
2022/05/28 00:22:44;;;;;;;5.13;1.13;;;;;;;;;;4997920;28;20236;-62
2022/05/28 00:25:12;;;;;;;2.10;1.00;;;;;;;;;;4981543;28;20231;-62
2022/05/28 00:27:40;;;;;;;2.97;1.00;;;;;;;;;;4981659;28;20232;-62
2022/05/28 00:30:07;;;;;;;5.03;1.63;;;;;;;;;;4983082;28;20325;-62
2022/05/28 00:32:34;;;;;;;4.37;1.00;;;;;;;;;;4980213;28;20227;-61
2022/05/28 00:35:01;;;;;;;3.10;1.23;;;;;;;;;;4983230;28;20239;-62
2022/05/28 00:37:29;;;;;;;3.53;1.00;;;;;;;;;;4980639;28;20231;-62
2022/05/28 00:39:56;;;;;;;4.03;0.93;;;;;;;;;;5002739;28;20231;-62
2022/05/28 00:42:23;;;;;;;3.07;1.23;;;;;;;;;;4998584;28;20231;-62
2022/05/28 00:44:49;;;;;;;4.23;1.23;;;;;;;;;;5004316;28;20238;-61
2022/05/28 00:47:16;;;;;;;4.07;1.10;;;;;;;;;;5001529;28;20241;-62
2022/05/28 00:49:43;;;;;;;3.30;1.17;;;;;;;;;;5000823;28;20235;-62
2022/05/28 00:52:09;;;;;;;5.83;1.37;;;;;;;;;;5000192;28;20235;-62
2022/05/28 00:54:40;;;;;;;2.83;1.13;;;;;;;;;;5002224;28;20227;-62
2022/05/28 00:57:08;;;;;;;5.77;1.20;;;;;;;;;;4992076;28;20223;-62
2022/05/28 00:59:34;;;;;;;3.30;1.20;;;;;;;;;;5000040;28;20247;-62
2022/05/28 01:02:04;;;;;;;3.83;1.00;;;;;;;;;;5000380;28;20227;-62
2022/05/28 01:04:36;;;;;;;2.63;0.80;;;;;;;;;;4999027;28;20649;-62
2022/05/28 01:07:06;;;;;;;3.20;1.20;;;;;;;;;;5000053;28;20229;-61
2022/05/28 01:09:37;;;;;;;5.73;1.40;;;;;;;;;;5000118;28;20586;-62
2022/05/28 01:12:06;;;;;;;4.57;1.50;;;;;;;;;;4998376;28;20250;-62
2022/05/28 01:14:36;;;;;;;5.70;1.43;;;;;;;;;;4994540;28;20219;-62
2022/05/28 01:17:17;;;;;;;5.10;1.37;;;;;;;;;;4983024;28;20589;-63
2022/05/28 01:20:04;;;;;;;5.33;1.27;;;;;;;;;;4988092;28;20223;-62
2022/05/28 01:22:49;;;;;;;4.87;1.87;;;;;;;;;;5000871;28;20227;-62
2022/05/28 01:25:19;;;;;;;6.33;1.30;;;;;;;;;;4999559;28;20246;-62
2022/05/28 01:27:49;;;;;;;7.73;1.50;;;;;;;;;;4997373;28;20698;-62
2022/05/28 01:30:16;;;;;;;3.60;1.03;;;;;;;;;;4998314;28;20346;-62
2022/05/28 01:32:43;;;;;;;7.37;1.77;;;;;;;;;;4998468;28;20730;-62
2022/05/28 01:35:11;;;;;;;4.47;1.10;;;;;;;;;;4997754;28;20554;-62
2022/05/28 01:37:38;;;;;;;8.87;1.43;;;;;;;;;;5001785;28;20235;-62
2022/05/28 01:40:05;;;;;;;5.40;1.40;;;;;;;;;;4998215;28;20244;-62
2022/05/28 01:42:33;;;;;;;7.33;1.50;;;;;;;;;;4983632;28;20594;-62
2022/05/28 01:45:00;;;;;;;4.27;1.37;;;;;;;;;;5002313;28;20223;-61
2022/05/28 01:47:27;;;;;;;7.03;1.63;;;;;;;;;;5005377;28;20597;-61
2022/05/28 01:49:54;;;;;;;7.37;1.57;;;;;;;;;;4992236;28;20777;-62
2022/05/28 01:52:21;;;;;;;7.53;1.60;;;;;;;;;;5004990;28;20237;-62
2022/05/28 01:54:48;;;;;;;4.50;1.20;;;;;;;;;;5001686;28;20226;-61
2022/05/28 01:57:15;;;;;;;5.33;1.57;;;;;;;;;;4987695;28;20230;-62
2022/05/28 01:59:41;;;;;;;7.70;1.70;;;;;;;;;;5003455;28;20765;-62
2022/05/28 02:02:10;;;;;;;3.87;1.30;;;;;;;;;;4991365;28;20595;-62
2022/05/28 02:04:37;;;;;;;3.47;1.00;;;;;;;;;;5002245;28;20253;-62
2022/05/28 02:07:04;;;;;;;4.77;1.50;;;;;;;;;;4991772;28;20333;-61
2022/05/28 02:09:32;;;;;;;2.60;1.27;;;;;;;;;;5003147;28;20231;-62
2022/05/28 02:12:11;;;;;;;5.97;2.20;;;;;;;;;;5001615;28;20231;-65
2022/05/28 02:14:43;;;;;;;5.73;1.73;;;;;;;;;;5003514;28;20317;-62
2022/05/28 02:17:22;;;;;;;3.67;1.43;;;;;;;;;;4984408;28;20906;-62
2022/05/28 02:19:52;;;;;;;4.87;1.33;;;;;;;;;;4985406;28;20702;-62
2022/05/28 02:22:22;;;;;;;7.27;1.57;;;;;;;;;;4981969;28;20240;-62
2022/05/28 02:24:54;;;;;;;4.20;1.20;;;;;;;;;;4974006;28;20660;-64
2022/05/28 02:27:23;;;;;;;3.53;1.10;;;;;;;;;;4981017;28;20282;-63
2022/05/28 02:29:50;;;;;;;2.90;1.10;;;;;;;;;;4983379;28;20251;-62
2022/05/28 02:32:21;;;;;;;6.17;1.40;;;;;;;;;;4965362;28;20220;-62
2022/05/28 02:34:50;;;;;;;4.10;1.13;;;;;;;;;;4983214;28;20224;-62
2022/05/28 02:37:18;;;;;;;4.73;1.17;;;;;;;;;;4984461;28;20231;-62
2022/05/28 02:39:45;;;;;;;4.77;1.03;;;;;;;;;;4980166;28;20239;-62
2022/05/28 02:42:12;;;;;;;3.07;1.10;;;;;;;;;;4985447;28;20239;-62
2022/05/28 02:44:38;;;;;;;3.97;1.30;;;;;;;;;;4988331;28;20694;-62
2022/05/28 02:47:05;;;;;;;3.87;1.20;;;;;;;;;;5004027;28;20361;-61
2022/05/28 02:49:32;;;;;;;5.47;1.00;;;;;;;;;;5002505;28;20837;-62
2022/05/28 02:51:59;;;;;;;4.47;1.00;;;;;;;;;;5003463;28;20230;-62
2022/05/28 02:54:26;;;;;;;1.37;0.80;;;;;;;;;;5001447;28;20306;-62
2022/05/28 02:56:54;;;;;;;3.00;0.90;;;;;;;;;;5001985;28;20235;-62
2022/05/28 02:59:20;;;;;;;2.13;0.80;;;;;;;;;;5002241;28;20219;-62
2022/05/28 03:01:47;;;;;;;2.17;0.90;;;;;;;;;;5004124;28;20241;-62
2022/05/28 03:04:14;;;;;;;5.83;1.07;;;;;;;;;;5002119;28;20709;-62
2022/05/28 03:06:41;;;;;;;1.90;0.80;;;;;;;;;;5003396;28;20231;-62
2022/05/28 03:09:07;;;;;;;1.83;0.90;;;;;;;;;;4998103;28;20232;-62
2022/05/28 03:11:34;;;;;;;3.23;0.80;;;;;;;;;;4983531;28;20236;-62
2022/05/28 03:14:01;;;;;;;3.10;0.80;;;;;;;;;;4960484;28;20598;-63
2022/05/28 03:16:27;;;;;;;1.63;0.70;;;;;;;;;;4975261;28;29783;-62
2022/05/28 03:18:54;;;;;;;4.50;1.53;;;;;;;;;;4981341;28;20231;-62
2022/05/28 03:21:21;;;;;;;3.77;1.00;;;;;;;;;;4965333;28;20235;-62
2022/05/28 03:23:47;;;;;;;3.13;0.80;;;;;;;;;;4981417;28;20307;-62
2022/05/28 03:26:15;;;;;;;2.67;0.87;;;;;;;;;;4983207;28;20235;-62
2022/05/28 03:28:43;;;;;;;4.23;1.00;;;;;;;;;;4981062;28;20234;-62
2022/05/28 03:31:10;;;;;;;1.83;0.80;;;;;;;;;;4982840;28;21037;-62
2022/05/28 03:33:37;;;;;;;2.27;0.80;;;;;;;;;;4981449;28;20228;-62
2022/05/28 03:36:04;;;;;;;2.40;0.80;;;;;;;;;;4965314;28;20228;-62
2022/05/28 03:38:31;;;;;;;2.57;0.87;;;;;;;;;;4965722;28;20232;-62
2022/05/28 03:40:58;;;;;;;3.53;0.80;;;;;;;;;;4962923;28;20300;-62
2022/05/28 03:43:25;;;;;;;3.13;0.87;;;;;;;;;;4945241;28;20687;-62
2022/05/28 03:45:52;;;;;;;2.90;0.70;;;;;;;;;;4962027;28;20688;-62
2022/05/28 03:48:19;;;;;;;3.63;0.90;;;;;;;;;;4961903;28;20368;-63
2022/05/28 03:51:03;;;;;;;3.30;0.93;;;;;;;;;;4961773;28;20251;-62
2022/05/28 03:53:29;;;;;;;1.93;0.60;;;;;;;;;;4964101;28;20236;-61
2022/05/28 03:56:14;;;;;;;0.73;0.73;;;;;;;;;;4959144;28;36435;-62
2022/05/28 03:58:41;;;;;;;2.10;0.80;;;;;;;;;;4961347;28;20291;-62
2022/05/28 04:01:25;;;;;;;0.97;0.60;;;;;;;;;;4962322;28;20307;-62
2022/05/28 04:03:52;;;;;;;1.80;1.17;;;;;;;;;;4963201;28;20698;-62
2022/05/28 04:06:19;;;;;;;1.13;1.00;;;;;;;;;;4960667;28;20236;-62
2022/05/28 04:08:45;;;;;;;3.27;1.07;;;;;;;;;;4945807;28;20231;-62
2022/05/28 04:11:13;;;;;;;2.70;0.90;;;;;;;;;;4962015;28;20226;-62
2022/05/28 04:13:40;;;;;;;1.57;0.70;;;;;;;;;;4982094;28;20305;-62
2022/05/28 04:16:07;;;;;;;5.80;1.30;;;;;;;;;;4980604;28;20235;-62
2022/05/28 04:18:51;;;;;;;1.43;0.70;;;;;;;;;;4981388;28;20230;-62
2022/05/28 04:21:18;;;;;;;3.80;1.00;;;;;;;;;;4981254;28;20243;-62
2022/05/28 04:23:45;;;;;;;1.97;0.80;;;;;;;;;;4981800;28;20231;-62
2022/05/28 04:26:11;;;;;;;4.20;0.60;;;;;;;;;;4980645;28;20236;-63
2022/05/28 04:28:38;;;;;;;2.73;0.87;;;;;;;;;;4964111;28;20236;-62
2022/05/28 04:31:05;;;;;;;2.87;0.90;;;;;;;;;;4972756;28;20341;-62
2022/05/28 04:33:32;;;;;;;1.20;0.50;;;;;;;;;;4983211;28;20555;-62
2022/05/28 04:35:59;;;;;;;1.13;0.93;;;;;;;;;;4983804;28;20222;-63
2022/05/28 04:38:26;;;;;;;1.07;0.70;;;;;;;;;;4980741;28;20699;-62
2022/05/28 04:40:52;;;;;;;1.77;0.60;;;;;;;;;;4980575;28;20242;-62
2022/05/28 04:43:19;;;;;;;4.40;0.83;;;;;;;;;;4984100;28;20323;-62
2022/05/28 04:45:46;;;;;;;2.13;0.77;;;;;;;;;;4978855;28;20216;-61
2022/05/28 04:48:15;;;;;;;1.63;0.50;;;;;;;;;;4987299;28;20271;-62
2022/05/28 04:50:42;;;;;;;1.97;0.60;;;;;;;;;;4961893;28;20903;-62
2022/05/28 04:53:09;;;;;;;2.47;0.53;;;;;;;;;;4980136;28;20433;-62
2022/05/28 04:55:37;;;;;;;2.63;0.60;;;;;;;;;;4984807;28;20231;-62
2022/05/28 04:58:04;;;;;;;1.90;0.70;;;;;;;;;;4984434;28;20227;-61
2022/05/28 05:00:31;;;;;;;0.80;0.60;;;;;;;;;;4977933;28;20247;-62
2022/05/28 05:02:59;;;;;;;1.77;0.80;;;;;;;;;;4982825;28;20254;-65
2022/05/28 05:05:27;;;;;;;1.60;0.70;;;;;;;;;;4980517;28;20725;-61
2022/05/28 05:07:53;;;;;;;1.77;0.60;;;;;;;;;;4988380;28;20613;-61
2022/05/28 05:10:20;;;;;;;1.70;0.70;;;;;;;;;;4992625;28;22134;-61
2022/05/28 05:12:47;;;;;;;2.73;0.60;;;;;;;;;;4998428;28;20938;-61
2022/05/28 05:15:14;;;;;;;3.07;0.63;;;;;;;;;;5002295;28;20235;-61
2022/05/28 05:17:41;;;;;;;1.87;0.50;;;;;;;;;;4996742;28;20245;-61
2022/05/28 05:20:25;;;;;;;0.53;0.40;;;;;;;;;;4991343;28;20321;-61
2022/05/28 05:22:52;;;;;;;0.67;0.50;;;;;;;;;;5001199;28;20234;-61
2022/05/28 05:25:19;;;;;;;1.60;0.57;;;;;;;;;;5003170;28;20694;-61
2022/05/28 05:27:46;;;;;;;2.40;0.60;;;;;;;;;;5001178;28;20250;-61
2022/05/28 05:30:13;;;;;;;1.40;0.70;;;;;;;;;;4973658;28;20255;-61
2022/05/28 05:32:39;;;;;;;2.47;0.70;;;;;;;;;;4964410;28;44771;-61
2022/05/28 05:35:06;;;;;;;1.07;0.50;;;;;;;;;;4963891;28;54426;-61
2022/05/28 05:37:34;;;;;;;1.10;0.70;;;;;;;;;;4975057;28;58693;-61
2022/05/28 05:40:01;;;;;;;1.70;0.90;;;;;;;;;;4978519;28;63854;-61
2022/05/28 05:42:28;;;;;;;1.07;0.70;;;;;;;;;;4982472;28;20377;-61
2022/05/28 05:44:55;;;;;;;3.60;0.80;;;;;;;;;;4976923;28;20324;-61
2022/05/28 05:47:22;;;;;;;3.77;1.00;;;;;;;;;;4991156;28;20241;-61
2022/05/28 05:49:50;;;;;;;1.93;0.80;;;;;;;;;;4989416;28;26057;-62
2022/05/28 05:52:17;;;;;;;1.40;0.60;;;;;;;;;;4978853;28;45512;-60
2022/05/28 05:54:49;;;;;;;1.63;0.60;;;;;;;;;;4991181;28;24955;-60
2022/05/28 05:57:16;;;;;;;1.00;0.50;;;;;;;;;;4960738;28;20548;-62
2022/05/28 05:59:44;;;;;;;1.57;0.73;;;;;;;;;;4996165;28;20230;-61
2022/05/28 06:02:11;;;;;;;1.60;0.40;;;;;;;;;;4991063;28;20238;-61
2022/05/28 06:04:38;;;;;;;0.70;0.40;;;;;;;;;;4992196;28;27829;-60
2022/05/28 06:07:05;;;;;;;2.83;0.60;;;;;;;;;;4988463;28;20310;-61
2022/05/28 06:09:32;;;;;;;0.80;0.53;;;;;;;;;;4975958;28;20239;-62
2022/05/28 06:11:59;;;;;;;0.60;0.40;;;;;;;;;;5000946;28;20301;-62
2022/05/28 06:14:26;;;;;;;0.80;0.50;;;;;;;;;;4993215;28;25414;-62
2022/05/28 06:16:52;;;;;;;1.50;0.53;;;;;;;;;;5000665;28;20230;-62
2022/05/28 06:19:19;;;;;;;1.40;0.40;;;;;;;;;;4999522;28;20234;-62
2022/05/28 06:21:47;;;;;;;0.90;0.47;;;;;;;;;;4997716;28;23704;-66
2022/05/28 06:24:14;;;;;;;0.97;0.50;;;;;;;;;;4999984;28;20284;-62
2022/05/28 06:26:40;;;;;;;2.10;0.50;;;;;;;;;;4996664;28;20223;-62
2022/05/28 06:29:07;;;;;;;0.83;0.57;;;;;;;;;;5000305;28;20733;-62
2022/05/28 06:31:34;;;;;;;0.80;0.40;;;;;;;;;;4992962;28;20238;-62
2022/05/28 06:34:01;;;;;;;1.20;0.60;;;;;;;;;;4999043;28;20710;-62
2022/05/28 06:36:30;;;;;;;0.70;0.50;;;;;;;;;;4974052;28;20225;-62
2022/05/28 06:38:57;;;;;;;1.77;0.50;;;;;;;;;;5001411;28;20246;-63
2022/05/28 06:41:26;;;;;;;1.43;0.70;;;;;;;;;;5002347;28;20945;-62
2022/05/28 06:43:53;;;;;;;1.40;0.50;;;;;;;;;;5001606;28;20265;-62
2022/05/28 06:46:19;;;;;;;3.93;0.80;;;;;;;;;;4994881;28;20312;-62
2022/05/28 06:48:47;;;;;;;3.23;0.70;;;;;;;;;;5000708;28;20223;-62
2022/05/28 06:51:14;;;;;;;1.20;0.53;;;;;;;;;;5003909;28;20573;-62
2022/05/28 06:53:41;;;;;;;1.37;0.87;;;;;;;;;;4984648;28;20240;-62
2022/05/28 06:56:08;;;;;;;3.20;0.80;;;;;;;;;;4982689;28;20233;-61
2022/05/28 06:58:36;;;;;;;3.13;0.83;;;;;;;;;;4981646;28;20592;-63
2022/05/28 07:01:03;;;;;;;1.13;0.90;;;;;;;;;;4965117;28;20228;-61
2022/05/28 07:03:31;;;;;;;1.97;0.73;;;;;;;;;;4979728;28;20343;-62
2022/05/28 07:06:19;;;;;;;2.37;0.80;;;;;;;;;;4981807;28;20262;-62
2022/05/28 07:08:45;;;;;;;4.87;0.90;;;;;;;;;;4982759;28;20227;-61
2022/05/28 07:11:12;;;;;;;2.97;1.27;;;;;;;;;;4995163;28;20227;-62
2022/05/28 07:13:39;;;;;;;2.67;0.70;;;;;;;;;;4999283;28;20568;-62
2022/05/28 07:16:06;;;;;;;2.87;0.77;;;;;;;;;;5003151;28;20301;-62
2022/05/28 07:18:33;;;;;;;2.57;1.10;;;;;;;;;;4986532;28;20234;-62
2022/05/28 07:20:59;;;;;;;3.90;1.00;;;;;;;;;;5003249;28;20284;-63
2022/05/28 07:23:27;;;;;;;2.80;0.80;;;;;;;;;;5001151;28;20235;-62
2022/05/28 07:25:57;;;;;;;3.03;0.70;;;;;;;;;;5003745;28;20888;-62
2022/05/28 07:28:33;;;;;;;1.93;0.97;;;;;;;;;;5000889;28;20258;-62
2022/05/28 07:31:07;;;;;;;2.70;0.90;;;;;;;;;;5000843;28;20235;-62
2022/05/28 07:33:34;;;;;;;2.27;1.00;;;;;;;;;;4991337;28;20239;-62
2022/05/28 07:36:01;;;;;;;4.67;1.00;;;;;;;;;;5001488;28;20247;-62
2022/05/28 07:38:28;;;;;;;4.83;0.90;;;;;;;;;;4982963;28;20242;-63
2022/05/28 07:40:55;;;;;;;5.53;1.20;;;;;;;;;;5002244;28;20598;-62
2022/05/28 07:43:22;;;;;;;6.33;0.93;;;;;;;;;;5001138;28;20231;-62
2022/05/28 07:45:48;;;;;;;2.03;0.90;;;;;;;;;;5002288;28;20227;-62
2022/05/28 07:48:16;;;;;;;4.10;0.90;;;;;;;;;;5000651;28;20318;-62
2022/05/28 07:50:42;;;;;;;3.33;1.20;;;;;;;;;;4994730;28;20241;-62
2022/05/28 07:53:09;;;;;;;4.53;0.80;;;;;;;;;;4996745;28;20866;-62
2022/05/28 07:55:36;;;;;;;5.53;1.50;;;;;;;;;;5003025;28;20320;-62
2022/05/28 07:58:03;;;;;;;4.20;0.90;;;;;;;;;;5000337;28;20231;-62
2022/05/28 08:00:48;;;;;;;2.97;0.83;;;;;;;;;;5001129;28;20317;-62
2022/05/28 08:03:15;;;;;;;3.03;0.80;;;;;;;;;;5000307;28;20241;-62
2022/05/28 08:05:43;;;;;;;4.23;1.20;;;;;;;;;;4982870;28;20231;-62
2022/05/28 08:08:09;;;;;;;3.07;0.80;;;;;;;;;;4980881;28;20232;-62
2022/05/28 08:10:36;;;;;;;3.87;0.90;;;;;;;;;;4998153;28;20235;-62
2022/05/28 08:13:04;;;;;;;2.43;0.80;;;;;;;;;;4999087;28;20316;-62
2022/05/28 08:15:30;;;;;;;3.53;1.20;;;;;;;;;;5001505;28;21029;-62
2022/05/28 08:17:57;;;;;;;1.83;0.80;;;;;;;;;;5000384;28;20357;-62
2022/05/28 08:23:08;;;;;;;3.20;0.90;;;;;;;;;;5001975;28;20223;-62
2022/05/28 08:23:11;;;;;;;2.87;1.00;;;;;;;;;;4998772;28;20223;-62
2022/05/28 08:25:40;;;;;;;4.80;1.20;;;;;;;;;;5001449;28;20250;-62
2022/05/28 08:28:07;;;;;;;3.80;1.27;;;;;;;;;;5000113;28;20227;-62
2022/05/28 08:30:53;;;;;;;2.40;1.00;;;;;;;;;;5000710;28;20703;-62
2022/05/28 08:33:21;;;;;;;4.03;1.00;;;;;;;;;;4999994;28;20238;-62
2022/05/28 08:36:06;;;;;;;3.43;1.03;;;;;;;;;;4985993;28;20219;-62
2022/05/28 08:38:33;;;;;;;2.17;0.77;;;;;;;;;;4999991;28;20230;-62
2022/05/28 08:41:00;;;;;;;2.93;1.00;;;;;;;;;;5001810;28;20231;-62
2022/05/28 08:43:30;;;;;;;5.97;1.23;;;;;;;;;;4998173;28;20235;-61
2022/05/28 08:45:57;;;;;;;2.60;1.00;;;;;;;;;;4982353;28;20227;-61
2022/05/28 08:48:38;;;;;;;2.23;1.00;;;;;;;;;;5001394;28;20238;-61
2022/05/28 08:51:14;;;;;;;1.80;0.90;;;;;;;;;;5000089;28;20258;-61
2022/05/28 08:53:50;;;;;;;4.63;1.27;;;;;;;;;;4998971;28;20239;-61
2022/05/28 08:56:19;;;;;;;2.97;1.00;;;;;;;;;;4967043;28;20775;-62
2022/05/28 08:59:05;;;;;;;2.73;0.90;;;;;;;;;;4985216;28;20234;-62
2022/05/28 09:01:32;;;;;;;1.87;0.80;;;;;;;;;;4985134;28;20234;-62
2022/05/28 09:04:06;;;;;;;2.13;0.93;;;;;;;;;;4983598;28;20254;-61
2022/05/28 09:06:55;;;;;;;4.30;1.00;;;;;;;;;;4982617;28;20234;-62
2022/05/28 09:09:27;;;;;;;4.10;1.30;;;;;;;;;;4998418;28;20594;-61
2022/05/28 09:12:00;;;;;;;3.37;1.27;;;;;;;;;;4981882;28;20342;-62
2022/05/28 09:14:31;;;;;;;1.90;0.70;;;;;;;;;;4981413;28;20230;-61
2022/05/28 09:17:07;;;;;;;2.13;0.70;;;;;;;;;;4998053;28;20226;-62
2022/05/28 09:19:53;;;;;;;3.07;1.00;;;;;;;;;;4957680;28;22879;-61
2022/05/28 09:22:20;;;;;;;4.33;1.07;;;;;;;;;;4982259;28;20235;-61
2022/05/28 09:24:47;;;;;;;3.47;0.87;;;;;;;;;;4979533;28;20282;-64
2022/05/28 09:27:21;;;;;;;4.23;1.10;;;;;;;;;;4982511;28;20262;-62
2022/05/28 09:30:05;;;;;;;4.07;0.97;;;;;;;;;;4978387;28;20227;-62
2022/05/28 09:32:32;;;;;;;3.67;0.87;;;;;;;;;;4982342;28;20232;-61
2022/05/28 09:35:02;;;;;;;3.20;0.90;;;;;;;;;;4973842;28;20230;-62
2022/05/28 09:37:45;;;;;;;5.10;1.90;;;;;;;;;;4976532;28;20231;-62
2022/05/28 09:40:15;;;;;;;1.93;1.20;;;;;;;;;;4974698;28;20310;-61
2022/05/28 09:42:42;;;;;;;3.00;1.10;;;;;;;;;;4986895;28;20262;-63
2022/05/28 09:45:18;;;;;;;3.63;0.80;;;;;;;;;;4979143;28;20288;-62
2022/05/28 09:47:49;;;;;;;3.33;0.90;;;;;;;;;;4978944;28;20234;-62
2022/05/28 09:50:26;;;;;;;2.30;0.80;;;;;;;;;;4981669;28;37945;-62
2022/05/28 09:55:56;;;;;;;2.77;0.97;;;;;;;;;;4997879;28;20238;-62
2022/05/28 09:58:23;;;;;;;3.20;0.60;;;;;;;;;;4991801;28;20246;-62
2022/05/28 10:00:50;;;;;;;1.90;0.80;;;;;;;;;;4994963;28;20223;-62
2022/05/28 10:06:22;;;;;;;1.70;0.70;;;;;;;;;;4976372;28;20248;-61
2022/05/28 10:08:48;;;;;;;3.43;0.80;;;;;;;;;;4986160;28;20226;-62
2022/05/28 10:11:15;;;;;;;2.47;1.00;;;;;;;;;;4999986;28;21073;-61
2022/05/28 10:13:46;;;;;;;2.67;0.93;;;;;;;;;;5000140;28;20586;-62
2022/05/28 10:16:14;;;;;;;1.10;0.80;;;;;;;;;;5002402;28;20330;-62
2022/05/28 10:19:00;;;;;;;1.10;0.70;;;;;;;;;;5002435;28;20282;-61
2022/05/28 10:21:34;;;;;;;1.20;0.60;;;;;;;;;;4984709;28;20231;-61
2022/05/28 10:24:04;;;;;;;1.00;0.60;;;;;;;;;;4980618;28;20336;-62
2022/05/28 10:26:36;;;;;;;2.13;0.80;;;;;;;;;;4999821;28;20631;-54
2022/05/28 10:29:04;;;;;;;3.47;0.80;;;;;;;;;;4999133;28;20227;-55
2022/05/28 10:31:31;;;;;;;1.73;0.60;;;;;;;;;;4986404;28;20235;-61
2022/05/28 10:33:58;;;;;;;2.17;0.90;;;;;;;;;;4984082;28;20234;-62
2022/05/28 10:36:26;;;;;;;2.37;0.60;;;;;;;;;;5002782;28;20235;-61
2022/05/28 10:39:03;;;;;;;0.83;0.53;;;;;;;;;;5001001;28;24441;-62
2022/05/28 10:41:30;;;;;;;0.70;0.60;;;;;;;;;;5000270;28;20227;-62
2022/05/28 10:43:56;;;;;;;1.30;0.70;;;;;;;;;;5003451;28;20306;-62
2022/05/28 10:46:31;;;;;;;2.37;0.90;;;;;;;;;;4985084;28;20223;-62
2022/05/28 10:49:07;;;;;;;2.33;0.60;;;;;;;;;;5001768;28;20239;-62
2022/05/28 10:51:53;;;;;;;1.33;0.60;;;;;;;;;;4988356;28;20227;-62
2022/05/28 10:54:52;;;;;;;1.43;0.60;;;;;;;;;;5001884;28;20215;-62
2022/05/28 10:57:22;;;;;;;2.30;0.40;;;;;;;;;;4995337;28;20223;-61
2022/05/28 10:59:52;;;;;;;0.77;0.40;;;;;;;;;;4983394;28;20563;-62
2022/05/28 11:02:22;;;;;;;0.73;0.50;;;;;;;;;;5002649;28;28507;-62
2022/05/28 11:04:55;;;;;;;1.33;0.60;;;;;;;;;;5002027;28;20309;-62
2022/05/28 11:07:22;;;;;;;0.70;0.50;;;;;;;;;;5002009;28;20689;-62
2022/05/28 11:10:07;;;;;;;0.50;0.47;;;;;;;;;;5002887;28;20235;-61
2022/05/28 11:12:54;;;;;;;1.30;0.57;;;;;;;;;;4996158;28;20361;-62
2022/05/28 11:15:39;;;;;;;1.10;0.60;;;;;;;;;;5001477;28;20239;-61
2022/05/28 11:18:25;;;;;;;1.17;0.63;;;;;;;;;;5001275;28;20222;-60
2022/05/28 11:21:11;;;;;;;1.70;0.60;;;;;;;;;;5001907;28;20706;-62
2022/05/28 11:23:43;;;;;;;0.67;0.50;;;;;;;;;;4983006;28;20242;-61
2022/05/28 11:26:30;;;;;;;2.17;0.60;;;;;;;;;;4967554;28;20231;-61
2022/05/28 11:29:14;;;;;;;0.83;0.53;;;;;;;;;;4979473;28;20803;-62
2022/05/28 11:31:44;;;;;;;1.43;0.50;;;;;;;;;;4999453;28;20249;-63
2022/05/28 11:34:13;;;;;;;0.97;0.50;;;;;;;;;;4986567;28;20289;-62
2022/05/28 11:37:00;;;;;;;0.67;0.43;;;;;;;;;;4998282;28;20618;-61
2022/05/28 11:39:48;;;;;;;1.83;0.50;;;;;;;;;;4994725;28;20248;-61
2022/05/28 11:42:17;;;;;;;1.07;0.60;;;;;;;;;;4997983;28;20242;-62
2022/05/28 11:44:52;;;;;;;0.50;0.40;;;;;;;;;;5001935;28;20590;-62
2022/05/28 11:47:19;;;;;;;0.70;0.50;;;;;;;;;;4959022;28;20682;-62
2022/05/28 11:52:32;;;;;;;1.00;0.47;;;;;;;;;;4966905;28;20237;-62
2022/05/28 11:55:01;;;;;;;0.80;0.40;;;;;;;;;;5000261;28;20219;-61
2022/05/28 11:57:29;;;;;;;1.23;0.40;;;;;;;;;;4956362;28;20239;-62
2022/05/28 11:59:56;;;;;;;0.30;0.30;;;;;;;;;;4977400;28;20592;-62
2022/05/28 12:02:28;;;;;;;1.73;0.53;;;;;;;;;;4995533;28;20223;-61
2022/05/28 12:04:55;;;;;;;0.97;0.50;;;;;;;;;;4998825;28;20253;-62
2022/05/28 12:07:22;;;;;;;0.93;0.50;;;;;;;;;;4997161;28;20703;-61
2022/05/28 12:09:51;;;;;;;0.60;0.30;;;;;;;;;;4997043;28;25547;-61
2022/05/28 12:12:19;;;;;;;0.87;0.50;;;;;;;;;;4963409;28;20727;-61
2022/05/28 12:14:47;;;;;;;1.37;0.40;;;;;;;;;;4956985;28;20232;-61
2022/05/28 12:17:17;;;;;;;0.30;0.30;;;;;;;;;;4956701;28;34185;-64
2022/05/28 12:19:44;;;;;;;0.23;0.23;;;;;;;;;;4963886;28;20242;-60
2022/05/28 12:22:30;;;;;;;0.67;0.40;;;;;;;;;;4948174;28;21013;-61
2022/05/28 12:25:06;;;;;;;0.47;0.37;;;;;;;;;;4971827;28;27834;-60
2022/05/28 12:27:37;;;;;;;0.30;0.30;;;;;;;;;;4982988;28;20697;-62
2022/05/28 12:30:08;;;;;;;0.80;0.50;;;;;;;;;;4966014;28;20235;-63
2022/05/28 12:32:45;;;;;;;1.30;0.43;;;;;;;;;;4961475;28;20705;-62
2022/05/28 12:35:15;;;;;;;1.30;0.40;;;;;;;;;;4980247;28;20301;-61
2022/05/28 12:37:42;;;;;;;1.63;0.50;;;;;;;;;;4981110;28;20235;-62
2022/05/28 12:40:21;;;;;;;0.50;0.43;;;;;;;;;;4981332;28;20253;-62
2022/05/28 12:42:48;;;;;;;1.00;0.50;;;;;;;;;;4975984;28;20617;-62
2022/05/28 12:45:17;;;;;;;0.50;0.50;;;;;;;;;;4978487;28;20274;-62
2022/05/28 12:47:44;;;;;;;1.40;0.50;;;;;;;;;;4980647;28;20591;-61
2022/05/28 12:50:17;;;;;;;0.80;0.60;;;;;;;;;;4980575;28;20338;-61
2022/05/28 12:53:13;;;;;;;1.03;0.70;;;;;;;;;;4979208;28;20223;-61
2022/05/28 12:55:40;;;;;;;0.50;0.50;;;;;;;;;;4967828;28;20758;-61
2022/05/28 12:58:07;;;;;;;0.63;0.50;;;;;;;;;;4972898;28;20316;-61
2022/05/28 13:00:36;;;;;;;1.30;0.60;;;;;;;;;;4980539;28;20232;-61
2022/05/28 13:03:04;;;;;;;1.17;0.60;;;;;;;;;;4978476;28;20246;-61
2022/05/28 13:05:33;;;;;;;0.70;0.40;;;;;;;;;;4981978;28;20243;-61
2022/05/28 13:08:02;;;;;;;0.67;0.60;;;;;;;;;;4978556;28;20299;-61
2022/05/28 13:10:29;;;;;;;1.13;0.83;;;;;;;;;;4994104;28;20686;-62
2022/05/28 13:12:58;;;;;;;0.80;0.60;;;;;;;;;;4996975;28;20702;-61
2022/05/28 13:15:38;;;;;;;4.93;0.90;;;;;;;;;;4999052;28;20230;-54
2022/05/28 13:18:11;;;;;;;2.33;0.60;;;;;;;;;;4999424;28;20227;-55
2022/05/28 13:20:49;;;;;;;2.93;0.80;;;;;;;;;;4982106;28;20238;-53
2022/05/28 13:23:19;;;;;;;1.40;0.77;;;;;;;;;;4998205;28;20238;-53
2022/05/28 13:25:58;;;;;;;1.13;0.80;;;;;;;;;;4998459;28;20219;-55
2022/05/28 13:28:33;;;;;;;4.10;0.80;;;;;;;;;;5000191;28;20265;-55
2022/05/28 13:31:04;;;;;;;1.20;0.90;;;;;;;;;;4997843;28;20237;-52
2022/05/28 13:33:31;;;;;;;1.57;0.80;;;;;;;;;;4981082;28;20272;-53
2022/05/28 13:35:58;;;;;;;2.47;0.70;;;;;;;;;;4983408;28;20235;-54
2022/05/28 13:38:27;;;;;;;1.97;0.73;;;;;;;;;;4997545;28;20318;-55
2022/05/28 13:41:00;;;;;;;1.90;0.90;;;;;;;;;;5002019;28;20249;-55
2022/05/28 13:43:29;;;;;;;2.03;1.20;;;;;;;;;;4986246;28;20598;-56
2022/05/28 13:45:58;;;;;;;1.30;0.83;;;;;;;;;;5004577;28;20231;-54
2022/05/28 13:48:25;;;;;;;1.77;0.97;;;;;;;;;;5002614;28;20227;-55
2022/05/28 13:50:54;;;;;;;2.43;1.33;;;;;;;;;;4986982;28;20231;-56
2022/05/28 13:53:30;;;;;;;3.00;1.30;;;;;;;;;;4984684;28;20250;-55
2022/05/28 13:55:58;;;;;;;1.57;0.90;;;;;;;;;;4985687;28;20241;-52
2022/05/28 13:58:25;;;;;;;3.47;1.10;;;;;;;;;;4968057;28;20247;-55
2022/05/28 14:01:01;;;;;;;2.60;1.50;;;;;;;;;;4988518;28;20234;-57
2022/05/28 14:03:29;;;;;;;3.13;1.10;;;;;;;;;;4982898;28;20238;-54
2022/05/28 14:05:56;;;;;;;3.47;1.10;;;;;;;;;;4984870;28;20281;-55
2022/05/28 14:08:41;;;;;;;2.17;1.30;;;;;;;;;;5001726;28;20881;-55
2022/05/28 14:11:13;;;;;;;1.80;0.93;;;;;;;;;;4983444;28;20242;-53
2022/05/28 14:13:44;;;;;;;3.53;1.20;;;;;;;;;;4983437;28;20279;-52
2022/05/28 14:16:34;;;;;;;2.10;0.90;;;;;;;;;;4969781;28;20229;-53
2022/05/28 14:19:01;;;;;;;4.93;1.37;;;;;;;;;;4978173;28;20584;-55
2022/05/28 14:21:51;;;;;;;2.10;0.90;;;;;;;;;;4985351;28;20721;-56
2022/05/28 14:24:20;;;;;;;0.90;0.80;;;;;;;;;;4961730;28;20268;-55
2022/05/28 14:26:51;;;;;;;4.13;1.00;;;;;;;;;;4983738;28;20229;-56
2022/05/28 14:29:18;;;;;;;2.03;1.03;;;;;;;;;;5003097;28;20237;-57
2022/05/28 14:31:46;;;;;;;1.83;0.90;;;;;;;;;;5003224;28;20243;-60
2022/05/28 14:34:12;;;;;;;1.37;0.93;;;;;;;;;;5000885;28;20231;-55
2022/05/28 14:36:47;;;;;;;9.93;1.40;;;;;;;;;;5004931;28;22353;-56
2022/05/28 14:39:14;;;;;;;2.40;1.10;;;;;;;;;;5002637;28;20574;-54
2022/05/28 14:41:48;;;;;;;1.97;1.20;;;;;;;;;;4985693;28;20228;-61
2022/05/28 14:44:19;;;;;;;2.67;1.27;;;;;;;;;;4999461;28;20361;-56
2022/05/28 14:46:46;;;;;;;1.67;1.27;;;;;;;;;;5002222;28;20333;-55
2022/05/28 14:49:17;;;;;;;4.33;1.40;;;;;;;;;;5002076;28;20227;-55
2022/05/28 14:51:44;;;;;;;8.70;1.30;;;;;;;;;;5001374;28;20357;-55
2022/05/28 14:54:21;;;;;;;2.10;1.40;;;;;;;;;;4997912;28;20234;-55
2022/05/28 14:56:49;;;;;;;1.87;1.30;;;;;;;;;;5000857;28;20636;-56
2022/05/28 14:59:22;;;;;;;1.93;1.27;;;;;;;;;;5000553;28;20279;-53
2022/05/28 15:01:49;;;;;;;1.93;1.00;;;;;;;;;;5001526;28;20720;-54
2022/05/28 15:04:16;;;;;;;1.77;1.10;;;;;;;;;;5003678;28;20231;-56
2022/05/28 15:06:49;;;;;;;1.30;1.00;;;;;;;;;;5002281;28;20588;-55
2022/05/28 15:09:20;;;;;;;2.63;1.30;;;;;;;;;;4989285;28;20229;-55